Hauptseite
METAR-TAF:

METAR-TAF

Flughäfen :

Flughafen Kristianstad

Kristianstad, Schweden

Breite: 55-55N, Länge: 014-05E, Höhe: 23 m

Beobachtung

Neuester Wetterbericht von vor 27 Minuten, um 23:20 UTC
Wind 7 kt aus West
Temperatur 4°C
Luftfeuchtigkeit 93%
Luftdruck 1004 hPa
Sichtweite 10 km oder mehr

METAR: ESMK 162320Z AUTO 27007KT 9999 SCT055/// OVC090/// 04/03 Q1004

Zeit: 01:47 (23:47 UTC)

Prognose

Neuester Wetterbericht von vor 9 Stunden und 33 Minuten, um 14:14 UTC
Gültige Prognose vom 16 um 15 UTC bis 16 um 18 UTC
Wind 8 kt aus Ost
Sichtweite 10 km oder mehr
Aufgelockert bewölkt in der Höhe von 2000 ft
Zeitweise
vom 16 um 15 UTC bis 16 um 18 UTC
Aufgelockert bewölkt in der Höhe von 3000 ft, Kumulonimbus.

TAF: ESMK 161414Z 1615/1618 08008KT 9999 SCT020 TEMPO 1615/1618 SCT030CB

Wetterbeobachtungen und Prognosen von mehr als 4000 Flughäfen (METAR und TAF Bericht).

Die verfügbaren Stationen werden durch gelbe und rote Markierungen auf der Karte dargestellt.

Führen Sie die Maus auf sie, um den Namen der Station zu sehen.

Darauf klicken, um die Beobachtung von Wetterbeobachtungen und Prognosen zu sehen.

Um die Karte zu ändern : klicken Sie auf den grünen Tasten mit einem schwarzen Kreuz Zum Vergrößern, auf den grünen Button mit einem Gedankenstrich zu verkleinern, oder auf die grünen Pfeile für benachbarte Karten.


METAR-TAF: